Time;durP1;ratioP1;P1;durP2;ratioP2;P2;SDS_P1;SDS_P2;PMS_P1;PMS_P2;Temp;Humidity;BMP_temperature;BMP_pressure;BME280_temperature;BME280_humidity;BME280_pressure;Samples;Min_cycle;Max_cycle;Signal;HPM_P1;HPM_P2
2022/09/16 00:00:47;;;;;;;226.65;136.38;;;26.20;99.90;;;;;;5017534;28;20116;-65
2022/09/16 00:03:16;;;;;;;305.65;166.23;;;26.20;99.90;;;;;;5018028;28;20029;-65
2022/09/16 00:05:45;;;;;;;448.58;259.15;;;26.20;99.90;;;;;;5017677;28;20030;-65
2022/09/16 00:08:12;;;;;;;288.73;154.80;;;26.20;99.90;;;;;;5017452;28;20029;-65
2022/09/16 00:10:39;;;;;;;236.82;125.78;;;26.20;99.90;;;;;;5017197;28;20033;-66
2022/09/16 00:13:06;;;;;;;203.15;105.43;;;26.30;99.90;;;;;;5017257;28;20053;-65
2022/09/16 00:15:32;;;;;;;116.35;65.75;;;26.30;99.90;;;;;;5017318;28;20026;-66
2022/09/16 00:17:59;;;;;;;140.40;66.45;;;26.30;99.90;;;;;;5017890;28;20032;-65
2022/09/16 00:20:26;;;;;;;95.75;53.35;;;26.40;99.90;;;;;;5017517;28;20450;-64
2022/09/16 00:22:53;;;;;;;94.55;57.97;;;26.40;99.90;;;;;;5017680;28;20538;-64
2022/09/16 00:25:19;;;;;;;107.68;67.57;;;26.40;99.90;;;;;;5016771;28;20093;-65
2022/09/16 00:27:48;;;;;;;100.22;62.70;;;26.40;99.90;;;;;;5016932;28;20468;-65
2022/09/16 00:30:15;;;;;;;104.10;66.65;;;26.50;99.90;;;;;;5016624;28;20415;-65
2022/09/16 00:32:44;;;;;;;68.28;49.67;;;26.50;99.90;;;;;;5016662;28;20033;-66
2022/09/16 00:35:11;;;;;;;77.63;53.53;;;26.70;99.90;;;;;;5017038;28;20041;-66
2022/09/16 00:37:37;;;;;;;72.15;51.05;;;26.70;99.90;;;;;;5016798;28;20021;-65
2022/09/16 00:40:04;;;;;;;70.57;45.17;;;26.70;99.90;;;;;;5016382;28;20037;-65
2022/09/16 00:42:38;;;;;;;58.65;42.08;;;26.70;99.90;;;;;;5016544;28;20070;-65
2022/09/16 00:45:16;;;;;;;57.95;42.97;;;26.80;99.90;;;;;;5016520;28;20479;-65
2022/09/16 00:47:52;;;;;;;59.72;40.17;;;26.90;99.90;;;;;;5016487;28;20026;-66
2022/09/16 00:50:26;;;;;;;51.50;38.92;;;26.90;99.90;;;;;;5023803;28;20033;-65
2022/09/16 00:52:56;;;;;;;56.47;38.65;;;26.90;99.90;;;;;;5025525;28;20466;-65
2022/09/16 00:55:29;;;;;;;51.38;38.97;;;27.00;99.90;;;;;;5025219;28;20036;-65
2022/09/16 00:58:03;;;;;;;47.65;36.72;;;27.10;99.90;;;;;;5028957;28;20013;-65
2022/09/16 01:00:30;;;;;;;49.95;35.90;;;27.10;99.90;;;;;;5011132;28;20037;-64
2022/09/16 01:02:57;;;;;;;49.22;36.83;;;27.20;99.90;;;;;;5023767;28;20467;-65
2022/09/16 01:05:25;;;;;;;46.90;34.20;;;27.30;99.90;;;;;;5017634;28;20053;-65
2022/09/16 01:07:53;;;;;;;48.00;34.00;;;27.40;99.90;;;;;;5016513;28;20026;-65
2022/09/16 01:10:23;;;;;;;48.33;35.05;;;27.40;99.90;;;;;;4998237;28;20395;-65
2022/09/16 01:12:57;;;;;;;51.92;37.38;;;27.50;99.90;;;;;;5017094;28;20057;-65
2022/09/16 01:15:44;;;;;;;51.03;35.15;;;27.60;99.90;;;;;;5016188;28;20026;-65
2022/09/16 01:18:35;;;;;;;47.97;32.17;;;27.70;99.90;;;;;;5015898;28;20033;-65
2022/09/16 01:21:27;;;;;;;41.60;30.50;;;27.80;99.90;;;;;;5014564;28;20080;-64
2022/09/16 01:24:02;;;;;;;43.53;30.27;;;27.80;99.90;;;;;;5015451;28;20034;-65
2022/09/16 01:26:40;;;;;;;43.30;30.08;;;27.90;99.90;;;;;;5020038;28;20530;-65
2022/09/16 01:29:12;;;;;;;36.05;26.83;;;28.00;99.90;;;;;;5017808;28;20438;-65
2022/09/16 01:31:59;;;;;;;39.05;25.80;;;28.10;99.90;;;;;;5015274;28;20029;-64
2022/09/16 01:34:26;;;;;;;42.20;29.52;;;28.20;99.90;;;;;;5014957;28;20037;-65
2022/09/16 01:36:56;;;;;;;37.65;26.63;;;28.40;99.90;;;;;;5015166;28;20022;-65
2022/09/16 01:39:48;;;;;;;35.03;25.70;;;28.60;99.90;;;;;;5015309;28;20490;-66
2022/09/16 01:42:35;;;;;;;35.53;26.80;;;28.80;99.90;;;;;;4935348;29;20118;-66
2022/09/16 01:45:41;;;;;;;29.00;20.52;;;28.80;99.90;;;;;;4935616;29;20032;-64
2022/09/16 01:48:23;;;;;;;30.17;20.40;;;29.00;99.90;;;;;;4935734;29;20071;-64
2022/09/16 01:51:00;;;;;;;24.27;19.75;;;29.00;99.90;;;;;;4935560;29;20036;-65
2022/09/16 01:53:38;;;;;;;28.92;21.17;;;29.00;99.90;;;;;;4935465;29;20125;-65
2022/09/16 01:56:14;;;;;;;24.48;18.27;;;29.00;99.90;;;;;;4935596;29;20040;-65
2022/09/16 01:58:57;;;;;;;30.08;19.85;;;29.10;99.90;;;;;;4935475;29;20031;-65
2022/09/16 02:01:34;;;;;;;33.00;22.92;;;29.20;99.90;;;;;;4941618;29;20051;-65
2022/09/16 02:04:10;;;;;;;28.65;20.50;;;29.10;99.90;;;;;;4942907;29;20474;-65
2022/09/16 02:06:39;;;;;;;30.33;20.48;;;29.20;99.90;;;;;;4935096;29;20389;-65
2022/09/16 02:09:17;;;;;;;29.52;21.08;;;29.20;99.90;;;;;;4935032;29;20082;-65
2022/09/16 02:11:47;;;;;;;33.53;21.33;;;29.30;99.90;;;;;;4940224;28;20485;-66
2022/09/16 02:14:20;;;;;;;32.35;22.77;;;29.40;99.90;;;;;;5014490;28;20038;-65
2022/09/16 02:16:58;;;;;;;34.97;24.15;;;29.30;99.90;;;;;;5014220;28;20076;-66
2022/09/16 02:19:32;;;;;;;28.00;21.00;;;29.50;99.90;;;;;;5014239;28;20109;-66
2022/09/16 02:22:02;;;;;;;32.72;21.38;;;29.60;99.90;;;;;;5013279;28;20455;-65
2022/09/16 02:24:30;;;;;;;31.17;21.52;;;29.80;99.90;;;;;;5014645;28;20045;-65
2022/09/16 02:27:02;;;;;;;30.92;20.92;;;30.00;99.90;;;;;;5014634;28;20022;-66
2022/09/16 02:29:31;;;;;;;;;;;30.20;99.90;;;;;;5014630;28;20038;-66
2022/09/16 02:32:01;;;;;;;31.02;21.77;;;30.10;99.90;;;;;;5014478;28;19917;-65
2022/09/16 02:34:35;;;;;;;29.98;23.08;;;30.10;99.90;;;;;;5014229;28;20080;-65
2022/09/16 02:37:07;;;;;;;30.58;22.73;;;30.10;99.90;;;;;;5014136;28;20100;-64
2022/09/16 02:39:38;;;;;;;35.75;23.95;;;30.30;99.90;;;;;;5014271;28;20054;-64
2022/09/16 02:42:05;;;;;;;30.98;21.25;;;30.30;99.90;;;;;;5013845;28;20036;-65
2022/09/16 02:44:33;;;;;;;25.40;20.90;;;30.30;99.90;;;;;;5013926;28;20030;-64
2022/09/16 02:47:11;;;;;;;31.15;21.63;;;30.30;99.90;;;;;;5014060;28;20391;-65
2022/09/16 02:49:58;;;;;;;58.70;39.70;;;30.20;99.90;;;;;;5013923;28;20118;-65
2022/09/16 02:52:45;;;;;;;104.10;62.05;;;30.30;99.90;;;;;;5024038;28;20025;-65
2022/09/16 02:55:14;;;;;;;81.55;47.60;;;30.30;99.90;;;;;;5020954;28;20033;-65
2022/09/16 02:57:41;;;;;;;109.80;63.33;;;30.50;99.90;;;;;;5033714;28;20033;-65
2022/09/16 03:00:08;;;;;;;84.10;49.80;;;30.50;99.90;;;;;;5033443;28;20045;-65
2022/09/16 03:02:35;;;;;;;228.05;139.60;;;30.50;99.90;;;;;;5033708;28;20033;-65
2022/09/16 03:05:02;;;;;;;196.55;115.30;;;30.60;99.90;;;;;;5033417;28;20025;-64
2022/09/16 03:07:29;;;;;;;116.25;61.17;;;30.60;99.90;;;;;;5033269;28;20029;-65
2022/09/16 03:09:56;;;;;;;48.67;29.98;;;30.70;99.90;;;;;;5033532;28;20017;-65
2022/09/16 03:12:24;;;;;;;87.15;47.25;;;30.90;99.90;;;;;;5033553;28;20029;-65
2022/09/16 03:14:56;;;;;;;49.53;31.05;;;31.00;99.90;;;;;;5033250;28;20385;-65
2022/09/16 03:17:34;;;;;;;110.80;54.67;;;30.90;99.90;;;;;;5033280;28;20029;-65
2022/09/16 03:20:09;;;;;;;139.52;64.40;;;31.20;99.90;;;;;;5033145;28;20049;-65
2022/09/16 03:22:53;;;;;;;113.65;57.90;;;31.20;99.90;;;;;;5032746;28;20040;-65
2022/09/16 03:25:22;;;;;;;125.85;70.30;;;31.20;99.90;;;;;;5033194;28;20024;-65
2022/09/16 03:28:11;;;;;;;93.20;63.50;;;31.00;99.90;;;;;;5033431;28;20482;-66
2022/09/16 03:30:48;;;;;;;76.35;51.90;;;31.00;99.90;;;;;;4952549;29;20062;-65
2022/09/16 03:33:26;;;;;;;62.50;42.40;;;31.00;99.90;;;;;;4946336;29;20466;-65
2022/09/16 03:35:57;;;;;;;63.45;45.22;;;31.20;99.90;;;;;;4942095;29;20031;-65
2022/09/16 03:38:25;;;;;;;60.75;41.15;;;31.20;99.90;;;;;;4946266;29;20413;-65
2022/09/16 03:40:52;;;;;;;84.88;49.22;;;31.20;99.90;;;;;;4952390;28;20075;-66
2022/09/16 03:43:18;;;;;;;80.38;45.80;;;31.10;99.90;;;;;;4945530;29;20035;-66
2022/09/16 03:45:45;;;;;;;68.10;37.30;;;31.20;99.90;;;;;;4943215;29;20580;-66
2022/09/16 03:48:13;;;;;;;46.88;27.30;;;31.20;99.90;;;;;;4941464;29;20035;-67
2022/09/16 03:50:40;;;;;;;56.92;32.28;;;31.30;99.90;;;;;;4945375;29;20031;-66
2022/09/16 03:53:07;;;;;;;37.75;25.27;;;31.30;99.90;;;;;;4938051;29;20560;-66
2022/09/16 03:55:33;;;;;;;50.72;31.00;;;31.40;99.90;;;;;;4946099;29;20051;-67
2022/09/16 03:58:00;;;;;;;33.40;21.27;;;31.50;99.90;;;;;;4951962;29;20094;-68
2022/09/16 04:00:28;;;;;;;35.95;23.00;;;31.70;99.90;;;;;;4964911;28;20037;-67
2022/09/16 04:02:54;;;;;;;140.90;93.13;;;31.80;99.90;;;;;;5032738;28;20135;-68
2022/09/16 04:05:21;;;;;;;31.50;23.08;;;31.80;99.90;;;;;;5032811;28;20025;-66
2022/09/16 04:07:49;;;;;;;30.30;21.33;;;31.90;99.90;;;;;;5032094;28;20116;-65
2022/09/16 04:10:16;;;;;;;21.25;16.10;;;32.00;99.90;;;;;;5015484;28;20386;-65
2022/09/16 04:12:42;;;;;;;23.83;15.15;;;32.10;99.90;;;;;;5033048;28;20022;-65
2022/09/16 04:15:09;;;;;;;23.15;16.35;;;32.10;99.90;;;;;;5032937;28;20037;-65
2022/09/16 04:17:36;;;;;;;25.30;16.60;;;32.00;99.90;;;;;;5033024;28;20068;-65
2022/09/16 04:20:03;;;;;;;20.88;15.63;;;32.00;99.90;;;;;;5032958;28;20029;-65
2022/09/16 04:22:30;;;;;;;23.77;14.52;;;31.90;99.90;;;;;;5033043;28;20033;-66
2022/09/16 04:24:57;;;;;;;21.50;15.02;;;31.90;99.90;;;;;;5032965;28;20014;-65
2022/09/16 04:27:24;;;;;;;21.42;14.35;;;31.80;99.90;;;;;;5032937;28;20033;-66
2022/09/16 04:29:51;;;;;;;23.50;16.77;;;31.90;99.90;;;;;;5032771;28;20041;-65
2022/09/16 04:32:17;;;;;;;25.25;15.27;;;32.10;99.90;;;;;;5033081;28;20037;-65
2022/09/16 04:34:44;;;;;;;26.80;16.52;;;32.10;99.90;;;;;;5032230;28;20033;-65
2022/09/16 04:37:11;;;;;;;20.25;15.63;;;32.20;99.90;;;;;;5032805;28;20474;-65
2022/09/16 04:39:37;;;;;;;20.75;14.45;;;32.20;99.90;;;;;;5032788;28;20033;-64
2022/09/16 04:42:05;;;;;;;22.88;15.70;;;32.50;99.90;;;;;;5032698;28;20030;-66
2022/09/16 04:44:31;;;;;;;26.52;18.02;;;32.70;99.90;;;;;;5032850;28;20022;-67
2022/09/16 04:46:58;;;;;;;26.55;17.67;;;32.70;99.90;;;;;;5035767;28;20033;-66
2022/09/16 04:49:24;;;;;;;24.30;17.13;;;32.60;99.70;;;;;;5036316;28;20026;-66
2022/09/16 04:51:51;;;;;;;25.77;18.65;;;32.50;99.10;;;;;;5036234;28;20124;-66
2022/09/16 04:54:18;;;;;;;19.50;16.77;;;32.50;99.90;;;;;;5035640;28;20467;-67
2022/09/16 04:56:47;;;;;;;22.02;15.43;;;32.50;99.60;;;;;;5035443;28;20388;-67
2022/09/16 04:59:14;;;;;;;24.13;16.70;;;32.50;99.60;;;;;;5010804;28;20453;-66
2022/09/16 05:01:40;;;;;;;28.27;21.17;;;32.60;99.80;;;;;;5025922;28;20466;-66
2022/09/16 05:04:09;;;;;;;43.95;25.13;;;32.70;98.00;;;;;;5023961;28;20033;-67
2022/09/16 05:06:39;;;;;;;41.75;25.35;;;32.70;97.80;;;;;;5025233;28;20022;-66
2022/09/16 05:09:06;;;;;;;57.70;32.70;;;32.70;98.80;;;;;;5025943;28;20045;-66
2022/09/16 05:11:36;;;;;;;41.90;24.38;;;32.60;98.30;;;;;;5024813;28;20018;-66
2022/09/16 05:14:05;;;;;;;28.38;19.38;;;32.60;97.20;;;;;;5024023;28;20018;-65
2022/09/16 05:16:31;;;;;;;32.97;19.33;;;32.70;98.20;;;;;;5024755;28;20022;-65
2022/09/16 05:19:02;;;;;;;23.17;17.23;;;32.80;97.60;;;;;;5018277;28;20026;-67
2022/09/16 05:21:29;;;;;;;26.42;19.10;;;32.80;97.30;;;;;;5017577;28;20206;-65
2022/09/16 05:24:00;;;;;;;30.60;20.40;;;32.70;97.20;;;;;;5017254;28;20018;-64
2022/09/16 05:26:28;;;;;;;26.00;19.17;;;32.70;97.50;;;;;;5017649;28;20295;-64
2022/09/16 05:28:55;;;;;;;23.77;18.42;;;32.60;97.80;;;;;;5017087;28;20506;-63
2022/09/16 05:31:24;;;;;;;24.27;18.13;;;32.60;97.00;;;;;;5017295;28;20022;-63
2022/09/16 05:33:57;;;;;;;28.98;19.52;;;32.60;97.30;;;;;;5017695;28;20076;-66
2022/09/16 05:36:25;;;;;;;26.15;19.52;;;32.60;98.10;;;;;;5025458;28;20505;-65
2022/09/16 05:38:51;;;;;;;24.77;19.58;;;32.60;97.30;;;;;;5022893;28;20048;-67
2022/09/16 05:41:18;;;;;;;27.10;20.13;;;32.60;96.90;;;;;;5030695;28;20105;-66
2022/09/16 05:43:47;;;;;;;24.55;18.30;;;32.60;97.30;;;;;;5025666;28;20026;-66
2022/09/16 05:46:19;;;;;;;23.67;18.15;;;32.50;97.50;;;;;;5024463;28;20021;-65
2022/09/16 05:48:46;;;;;;;27.97;19.67;;;32.50;97.00;;;;;;5023204;28;20046;-66
2022/09/16 05:51:16;;;;;;;28.98;19.48;;;32.50;97.70;;;;;;5024150;28;20084;-64
2022/09/16 05:53:43;;;;;;;34.42;23.17;;;32.50;98.20;;;;;;5027331;28;20021;-66
2022/09/16 05:56:13;;;;;;;31.27;20.65;;;32.50;97.90;;;;;;5024619;28;20327;-66
2022/09/16 05:58:40;;;;;;;27.08;21.15;;;32.60;97.30;;;;;;5036747;28;20031;-66
2022/09/16 06:01:09;;;;;;;23.67;19.48;;;32.60;96.90;;;;;;5034863;28;20029;-66
2022/09/16 06:03:37;;;;;;;34.47;26.33;;;32.60;96.50;;;;;;5034679;28;20021;-65
2022/09/16 06:06:07;;;;;;;27.92;21.80;;;32.60;95.60;;;;;;5031380;28;20422;-65
2022/09/16 06:08:35;;;;;;;25.83;20.33;;;32.60;95.70;;;;;;5022352;28;20041;-65
2022/09/16 06:11:05;;;;;;;23.90;18.63;;;32.60;95.90;;;;;;5024314;28;20028;-65
2022/09/16 06:13:32;;;;;;;43.58;29.98;;;32.50;96.40;;;;;;5024734;28;20041;-65
2022/09/16 06:15:59;;;;;;;34.28;27.55;;;32.50;95.00;;;;;;5022311;28;20026;-64
2022/09/16 06:18:28;;;;;;;32.75;25.25;;;32.50;95.90;;;;;;5028976;28;20021;-64
2022/09/16 06:20:56;;;;;;;33.55;24.05;;;32.50;95.90;;;;;;5024731;28;20029;-65
2022/09/16 06:23:24;;;;;;;29.73;21.52;;;32.50;95.90;;;;;;5023484;28;20075;-64
2022/09/16 06:26:13;;;;;;;31.13;22.52;;;32.50;96.40;;;;;;5023976;28;20017;-63
2022/09/16 06:28:39;;;;;;;30.80;21.90;;;32.50;96.60;;;;;;5022417;28;20030;-63
2022/09/16 06:31:10;;;;;;;24.63;19.42;;;32.50;96.40;;;;;;5023180;28;20387;-63
2022/09/16 06:33:37;;;;;;;27.90;20.38;;;32.50;95.90;;;;;;5022378;28;20143;-63
2022/09/16 06:36:05;;;;;;;26.52;21.00;;;32.60;96.00;;;;;;5021529;28;20032;-63
2022/09/16 06:38:32;;;;;;;25.63;20.05;;;32.60;96.20;;;;;;5021003;28;20071;-63
2022/09/16 06:41:03;;;;;;;28.67;20.50;;;32.60;96.50;;;;;;5021842;28;20410;-64
2022/09/16 06:43:30;;;;;;;21.85;19.15;;;32.70;96.40;;;;;;5022134;28;20033;-63
2022/09/16 06:45:59;;;;;;;26.67;20.67;;;32.70;95.90;;;;;;5023487;28;20387;-64
2022/09/16 06:48:26;;;;;;;26.52;22.23;;;32.70;96.40;;;;;;5027250;28;20065;-64
2022/09/16 06:51:04;;;;;;;27.58;21.35;;;32.70;95.90;;;;;;5033431;28;20026;-62
2022/09/16 06:53:32;;;;;;;32.15;23.10;;;32.60;96.20;;;;;;5027916;28;20049;-63
2022/09/16 06:56:11;;;;;;;32.50;24.58;;;32.50;96.10;;;;;;5023949;28;20030;-63
2022/09/16 06:58:40;;;;;;;113.18;77.43;;;32.50;96.10;;;;;;5026810;28;20528;-64
2022/09/16 07:01:10;;;;;;;54.67;41.13;;;32.40;96.40;;;;;;5026078;28;20029;-64
2022/09/16 07:03:40;;;;;;;34.83;26.50;;;32.40;96.40;;;;;;5026251;28;20104;-68
2022/09/16 07:06:08;;;;;;;31.95;23.15;;;32.30;95.80;;;;;;5025907;28;20097;-65
2022/09/16 07:08:36;;;;;;;31.27;25.23;;;32.20;96.20;;;;;;5025775;28;20021;-64
2022/09/16 07:11:05;;;;;;;30.75;23.58;;;32.20;97.00;;;;;;5027736;28;20045;-64
2022/09/16 07:13:33;;;;;;;28.60;22.95;;;32.20;97.20;;;;;;5028956;28;20029;-63
2022/09/16 07:16:01;;;;;;;29.92;22.25;;;32.20;97.80;;;;;;5033252;28;20025;-63
2022/09/16 07:18:29;;;;;;;39.38;30.02;;;32.20;97.60;;;;;;5032314;28;20041;-63
2022/09/16 07:21:07;;;;;;;36.80;26.50;;;32.20;98.00;;;;;;5032983;28;20029;-63
2022/09/16 07:23:36;;;;;;;43.45;27.77;;;32.20;97.90;;;;;;5032108;28;20065;-64
2022/09/16 07:26:05;;;;;;;33.42;23.55;;;32.20;97.70;;;;;;5032922;28;20102;-66
2022/09/16 07:28:32;;;;;;;88.55;61.92;;;32.20;97.60;;;;;;5032044;28;20043;-64
2022/09/16 07:31:05;;;;;;;44.88;32.13;;;32.10;97.80;;;;;;5023273;28;20036;-64
2022/09/16 07:33:35;;;;;;;39.63;26.83;;;32.00;97.10;;;;;;5021670;28;20028;-65
2022/09/16 07:36:04;;;;;;;37.83;27.83;;;32.00;97.60;;;;;;5023164;28;20419;-64
2022/09/16 07:38:31;;;;;;;39.53;25.85;;;31.90;97.50;;;;;;5031112;28;20034;-63
2022/09/16 07:41:07;;;;;;;34.50;25.73;;;31.90;97.80;;;;;;5032860;28;20061;-64
2022/09/16 07:43:34;;;;;;;30.83;24.23;;;32.00;97.90;;;;;;5032920;28;20408;-63
2022/09/16 07:46:01;;;;;;;79.25;54.05;;;31.90;97.70;;;;;;5032752;28;20037;-66
2022/09/16 07:48:32;;;;;;;50.53;38.78;;;31.90;98.00;;;;;;5032158;28;20037;-64
2022/09/16 07:51:03;;;;;;;62.10;39.97;;;31.90;98.00;;;;;;5032804;28;20483;-64
2022/09/16 07:53:30;;;;;;;46.13;33.35;;;31.90;98.20;;;;;;5032598;28;20033;-64
2022/09/16 07:56:11;;;;;;;43.78;33.33;;;31.90;98.20;;;;;;5032958;28;20056;-65
2022/09/16 07:58:39;;;;;;;44.03;32.07;;;31.90;98.00;;;;;;5033108;28;20068;-65
2022/09/16 08:01:07;;;;;;;35.85;29.77;;;32.00;98.10;;;;;;5032660;28;20450;-64
2022/09/16 08:03:36;;;;;;;89.20;69.65;;;31.90;98.60;;;;;;5032744;28;20474;-63
2022/09/16 08:06:07;;;;;;;69.53;48.60;;;31.90;98.30;;;;;;5032725;28;20037;-63
2022/09/16 08:08:34;;;;;;;74.30;52.47;;;31.80;98.60;;;;;;5032782;28;20032;-65
2022/09/16 08:11:01;;;;;;;42.78;32.35;;;31.80;98.90;;;;;;5032287;28;20041;-65
2022/09/16 08:13:30;;;;;;;42.35;31.33;;;31.80;98.50;;;;;;5032706;28;20029;-65
2022/09/16 08:16:02;;;;;;;32.70;26.30;;;31.80;98.70;;;;;;5032843;28;20052;-65
2022/09/16 08:18:28;;;;;;;31.55;23.98;;;31.70;98.50;;;;;;5032403;28;20030;-64
2022/09/16 08:20:55;;;;;;;44.83;30.92;;;31.70;98.40;;;;;;5033944;28;20029;-64
2022/09/16 08:23:22;;;;;;;37.85;28.30;;;31.80;98.70;;;;;;5035980;28;20041;-64
2022/09/16 08:25:57;;;;;;;38.53;28.05;;;31.80;98.70;;;;;;5036317;28;20049;-64
2022/09/16 08:28:24;;;;;;;43.13;30.50;;;31.70;99.00;;;;;;5036301;28;20044;-66
2022/09/16 08:30:51;;;;;;;33.83;25.00;;;31.70;99.10;;;;;;5029938;28;20040;-66
2022/09/16 08:33:20;;;;;;;27.65;24.20;;;31.70;98.80;;;;;;5036445;28;20056;-67
2022/09/16 08:35:56;;;;;;;64.25;34.45;;;31.80;99.20;;;;;;5036091;28;20060;-64
2022/09/16 08:38:22;;;;;;;37.03;29.27;;;31.80;99.20;;;;;;5035787;28;20441;-63
2022/09/16 08:40:49;;;;;;;40.35;29.98;;;31.80;98.90;;;;;;5032615;28;20483;-64
2022/09/16 08:43:36;;;;;;;40.97;29.38;;;31.80;98.50;;;;;;5024838;28;20099;-64
2022/09/16 08:46:22;;;;;;;30.85;27.30;;;31.80;98.50;;;;;;5025408;28;20083;-64
2022/09/16 08:48:57;;;;;;;39.33;28.02;;;31.80;98.10;;;;;;5023085;28;20483;-63
2022/09/16 08:51:23;;;;;;;36.20;27.77;;;31.90;98.20;;;;;;5030867;28;20029;-63
2022/09/16 08:53:58;;;;;;;37.92;28.10;;;31.80;98.60;;;;;;5025649;28;20026;-64
2022/09/16 08:56:29;;;;;;;48.20;38.67;;;31.80;98.10;;;;;;5007432;28;20087;-63
2022/09/16 08:59:00;;;;;;;51.75;40.20;;;31.80;98.00;;;;;;5023599;28;20033;-63
2022/09/16 09:01:28;;;;;;;49.38;37.70;;;31.80;97.70;;;;;;5024290;28;20117;-64
2022/09/16 09:03:56;;;;;;;39.88;33.00;;;31.70;97.60;;;;;;5025761;28;20036;-64
2022/09/16 09:06:24;;;;;;;273.58;120.85;;;31.70;97.60;;;;;;5024540;28;20188;-64
2022/09/16 09:09:11;;;;;;;60.08;43.25;;;31.80;97.80;;;;;;5023397;28;20398;-64
2022/09/16 09:12:08;;;;;;;64.18;51.40;;;31.80;97.60;;;;;;5026300;28;20034;-64
2022/09/16 09:15:03;;;;;;;87.85;64.07;;;31.90;97.20;;;;;;5024491;28;20498;-65
2022/09/16 09:17:43;;;;;;;46.45;32.13;;;31.80;97.00;;;;;;5017996;28;20038;-65
2022/09/16 09:20:21;;;;;;;37.75;27.65;;;31.80;96.10;;;;;;5018084;28;20120;-64
2022/09/16 09:23:28;;;;;;;29.88;24.42;;;31.70;96.40;;;;;;5021594;28;20253;-65
2022/09/16 09:26:27;;;;;;;31.27;23.45;;;31.70;96.50;;;;;;4953866;29;20035;-64
2022/09/16 09:28:53;;;;;;;49.90;35.65;;;31.70;96.60;;;;;;4954122;29;20235;-63
2022/09/16 09:31:29;;;;;;;46.63;34.95;;;31.60;96.30;;;;;;4953691;28;20023;-63
2022/09/16 09:34:16;;;;;;;65.13;44.88;;;31.60;96.50;;;;;;4953043;29;20034;-64
2022/09/16 09:37:04;;;;;;;68.70;50.60;;;31.50;96.20;;;;;;4953654;29;20027;-64
2022/09/16 09:39:33;;;;;;;44.90;37.00;;;31.50;95.70;;;;;;4905216;29;20036;-64
2022/09/16 09:42:20;;;;;;;75.75;60.30;;;31.50;95.60;;;;;;4906016;29;20068;-67
2022/09/16 09:45:19;;;;;;;46.58;33.28;;;31.50;95.60;;;;;;4907135;29;20111;-67
2022/09/16 09:47:56;;;;;;;44.20;30.35;;;31.50;95.80;;;;;;4906412;29;20133;-63
2022/09/16 09:50:45;;;;;;;192.00;41.58;;;31.50;96.10;;;;;;4907205;29;20027;-63
2022/09/16 09:53:19;;;;;;;92.68;47.15;;;31.50;96.80;;;;;;4904409;29;20088;-64
2022/09/16 09:55:45;;;;;;;36.47;25.33;;;31.50;96.80;;;;;;4905432;29;20036;-64
2022/09/16 09:58:17;;;;;;;35.97;26.35;;;31.40;96.70;;;;;;4906811;29;20034;-64
2022/09/16 10:00:44;;;;;;;68.32;52.10;;;31.40;97.00;;;;;;4907220;29;20119;-63
2022/09/16 10:03:15;;;;;;;345.02;260.48;;;31.40;97.30;;;;;;4914461;29;20067;-63
2022/09/16 10:05:43;;;;;;;68.90;47.78;;;31.30;98.30;;;;;;4916424;29;20032;-63
2022/09/16 10:08:42;;;;;;;59.55;38.67;;;31.30;98.10;;;;;;4916189;29;20509;-63
2022/09/16 10:11:21;;;;;;;48.33;35.63;;;31.30;98.10;;;;;;4860080;29;20041;-63
2022/09/16 10:13:50;;;;;;;65.25;39.28;;;31.20;98.20;;;;;;4860125;29;20060;-63
2022/09/16 10:16:20;;;;;;;54.67;37.03;;;31.20;98.60;;;;;;4859753;29;20046;-63
2022/09/16 10:19:16;;;;;;;48.13;32.13;;;31.20;98.50;;;;;;4848503;29;20030;-64
2022/09/16 10:21:46;;;;;;;41.67;30.45;;;31.20;98.50;;;;;;4859629;29;20132;-63
2022/09/16 10:24:36;;;;;;;40.35;28.15;;;31.10;98.60;;;;;;4888204;29;20037;-63
2022/09/16 10:27:20;;;;;;;34.90;27.10;;;31.10;98.90;;;;;;4888308;29;20454;-63
2022/09/16 10:29:47;;;;;;;46.78;30.10;;;31.00;98.50;;;;;;4904411;29;20550;-61
2022/09/16 10:32:19;;;;;;;39.78;30.25;;;31.00;98.50;;;;;;4908859;29;20514;-61
2022/09/16 10:34:47;;;;;;;45.38;31.00;;;30.90;99.10;;;;;;4908290;29;20043;-61
2022/09/16 10:37:17;;;;;;;44.05;33.17;;;31.00;98.80;;;;;;4909053;29;20115;-62
2022/09/16 10:39:55;;;;;;;38.80;28.63;;;30.90;98.90;;;;;;4904588;29;20489;-61
2022/09/16 10:42:25;;;;;;;39.35;29.70;;;30.80;99.30;;;;;;4905138;29;20450;-61
2022/09/16 10:44:55;;;;;;;37.80;26.67;;;30.80;99.00;;;;;;4905507;29;20573;-61
2022/09/16 10:47:26;;;;;;;38.88;28.50;;;30.80;98.90;;;;;;4906007;29;20040;-62
2022/09/16 10:50:04;;;;;;;38.38;27.50;;;30.80;99.10;;;;;;4907273;29;20025;-63
2022/09/16 10:52:41;;;;;;;35.00;26.63;;;30.70;99.10;;;;;;4910466;29;20028;-62
2022/09/16 10:55:23;;;;;;;40.70;28.40;;;30.70;99.00;;;;;;4975710;28;20045;-65
2022/09/16 10:57:49;;;;;;;;;;;30.70;99.20;;;;;;5006695;28;20072;-62
2022/09/16 11:00:19;;;;;;;39.00;30.30;;;30.70;99.50;;;;;;5009346;28;20537;-62
2022/09/16 11:02:49;;;;;;;35.50;28.95;;;30.60;99.50;;;;;;5006775;28;20509;-62
2022/09/16 11:05:31;;;;;;;46.47;30.63;;;30.60;99.70;;;;;;5002862;28;20045;-62
2022/09/16 11:07:59;;;;;;;48.83;32.67;;;30.60;99.70;;;;;;5011592;28;20101;-64
2022/09/16 11:10:47;;;;;;;42.17;30.92;;;30.60;99.90;;;;;;5013823;28;20534;-64
2022/09/16 11:13:14;;;;;;;112.40;83.35;;;30.60;99.90;;;;;;5012997;28;20438;-64
2022/09/16 11:16:02;;;;;;;73.05;56.25;;;30.50;99.90;;;;;;5013135;28;20029;-64
2022/09/16 11:19:09;;;;;;;69.65;51.85;;;30.50;99.90;;;;;;5013657;28;20026;-63
2022/09/16 11:22:03;;;;;;;68.75;51.38;;;30.50;99.90;;;;;;5013050;28;20030;-65
2022/09/16 11:25:05;;;;;;;47.22;34.42;;;30.50;99.90;;;;;;5013500;28;20025;-64
2022/09/16 11:27:49;;;;;;;39.65;31.63;;;30.40;99.90;;;;;;5013737;28;20156;-65
2022/09/16 11:30:21;;;;;;;139.63;94.30;;;30.40;99.90;;;;;;5027565;28;20053;-64
2022/09/16 11:32:49;;;;;;;94.05;64.72;;;30.40;99.90;;;;;;5033238;28;20536;-64
2022/09/16 11:35:28;;;;;;;102.75;76.00;;;30.40;99.90;;;;;;5033203;28;20033;-65
2022/09/16 11:38:19;;;;;;;117.93;85.38;;;30.30;99.90;;;;;;5032985;28;20029;-66
2022/09/16 11:41:04;;;;;;;73.05;55.85;;;30.40;99.90;;;;;;5033193;28;20095;-65
2022/09/16 11:43:39;;;;;;;212.05;150.38;;;30.30;99.90;;;;;;5032503;28;20096;-65
2022/09/16 11:46:14;;;;;;;151.38;112.43;;;30.30;99.90;;;;;;5033183;28;20085;-65
2022/09/16 11:49:12;;;;;;;78.53;59.40;;;30.30;99.90;;;;;;5026993;28;20032;-65
2022/09/16 11:51:39;;;;;;;86.85;61.95;;;30.20;99.90;;;;;;5022651;28;20018;-65
2022/09/16 11:54:15;;;;;;;63.17;47.60;;;30.30;99.90;;;;;;5023304;28;20114;-64
2022/09/16 11:56:48;;;;;;;69.18;53.30;;;30.20;99.90;;;;;;5029627;28;20024;-66
2022/09/16 11:59:34;;;;;;;56.20;41.70;;;30.20;99.90;;;;;;5026658;28;20097;-65
2022/09/16 12:02:03;;;;;;;46.67;36.38;;;30.10;99.90;;;;;;4946950;29;20039;-65
2022/09/16 12:04:41;;;;;;;52.08;36.20;;;30.10;99.90;;;;;;4946837;29;20027;-64
2022/09/16 12:07:15;;;;;;;48.00;35.40;;;30.10;99.90;;;;;;4947051;29;20491;-63
2022/09/16 12:09:53;;;;;;;48.40;35.20;;;30.00;99.90;;;;;;4946480;29;20508;-65
2022/09/16 12:12:24;;;;;;;47.42;36.83;;;30.00;99.90;;;;;;4947170;29;20111;-65
2022/09/16 12:14:56;;;;;;;60.70;36.60;;;30.00;99.90;;;;;;4946629;29;20035;-65
2022/09/16 12:17:29;;;;;;;45.35;35.83;;;30.00;99.90;;;;;;4948550;29;20031;-66
2022/09/16 12:20:19;;;;;;;51.13;35.95;;;29.90;99.90;;;;;;4949957;29;20039;-65
2022/09/16 12:22:50;;;;;;;43.83;34.88;;;29.90;99.90;;;;;;4946607;29;20038;-66
2022/09/16 12:25:27;;;;;;;53.35;36.20;;;29.70;99.90;;;;;;4945901;29;20037;-66
2022/09/16 12:28:17;;;;;;;42.97;33.13;;;29.70;99.90;;;;;;4947613;29;20465;-66
2022/09/16 12:31:02;;;;;;;43.25;33.17;;;29.70;99.90;;;;;;4954618;29;20047;-66
2022/09/16 12:33:39;;;;;;;46.38;33.50;;;29.70;99.90;;;;;;4956212;29;20043;-64
2022/09/16 12:36:13;;;;;;;43.60;30.92;;;29.70;99.90;;;;;;4956254;29;20041;-65
2022/09/16 12:38:40;;;;;;;39.38;29.80;;;29.70;99.90;;;;;;4982180;28;20033;-65
2022/09/16 12:41:23;;;;;;;40.75;30.95;;;29.60;99.90;;;;;;5036856;28;20112;-65
2022/09/16 12:44:29;;;;;;;38.30;28.63;;;29.60;99.90;;;;;;5036149;28;20475;-65
2022/09/16 12:47:07;;;;;;;41.53;30.10;;;29.60;99.90;;;;;;5036515;28;20105;-66
2022/09/16 12:49:36;;;;;;;36.88;27.17;;;29.60;99.90;;;;;;5021653;28;20399;-65
2022/09/16 12:52:14;;;;;;;31.60;25.88;;;29.60;99.90;;;;;;5016413;28;20030;-64
2022/09/16 12:55:22;;;;;;;37.15;23.95;;;29.50;99.90;;;;;;5016023;28;20498;-64